Time;durP1;ratioP1;P1;durP2;ratioP2;P2;SDS_P1;SDS_P2;PMS_P1;PMS_P2;Temp;Humidity;BMP_temperature;BMP_pressure;BME280_temperature;BME280_humidity;BME280_pressure;Samples;Min_cycle;Max_cycle;Signal;HPM_P1;HPM_P2
2024/04/01 00:01:35;;;;;;;21.13;4.50;;;;;;;11.96;68.77;93636.69;3661131;32;20139;-51
2024/04/01 00:04:02;;;;;;;17.70;4.57;;;;;;;11.75;70.04;93636.50;3623706;32;20553;-45
2024/04/01 00:06:28;;;;;;;32.58;7.03;;;;;;;11.70;69.95;93627.66;3602782;32;20138;-49
2024/04/01 00:08:55;;;;;;;25.80;4.35;;;;;;;11.96;69.22;93634.81;3667859;32;20142;-51
2024/04/01 00:11:22;;;;;;;19.50;4.78;;;;;;;12.09;68.44;93632.78;3619120;32;20181;-50
2024/04/01 00:13:49;;;;;;;18.50;4.47;;;;;;;12.09;67.49;93643.47;3651693;32;20134;-48
2024/04/01 00:16:16;;;;;;;25.63;4.40;;;;;;;12.22;67.35;93635.81;3664265;32;20154;-48
2024/04/01 00:18:43;;;;;;;17.70;3.45;;;;;;;12.29;66.92;93634.78;3677071;32;20134;-49
2024/04/01 00:21:10;;;;;;;24.08;5.20;;;;;;;12.29;66.50;93637.44;3648216;32;20193;-46
2024/04/01 00:23:37;;;;;;;24.40;4.45;;;;;;;12.24;65.71;93646.25;3671639;32;20134;-52
2024/04/01 00:26:04;;;;;;;26.52;5.53;;;;;;;12.36;65.66;93640.72;3605886;32;20182;-44
2024/04/01 00:28:31;;;;;;;23.20;4.90;;;;;;;12.29;65.77;93638.28;3604205;32;20545;-47
2024/04/01 00:30:58;;;;;;;27.45;6.50;;;;;;;12.21;65.24;93638.75;3656289;32;20135;-53
2024/04/01 00:33:25;;;;;;;30.08;5.15;;;;;;;12.24;65.47;93641.69;3623076;32;20130;-51
2024/04/01 00:35:52;;;;;;;26.67;4.72;;;;;;;12.27;65.22;93645.75;3634438;32;20553;-50
2024/04/01 00:38:19;;;;;;;27.48;5.03;;;;;;;12.24;64.67;93641.69;3652870;32;20138;-46
2024/04/01 00:40:46;;;;;;;25.65;5.20;;;;;;;12.23;64.77;93644.66;3632357;32;20126;-52
2024/04/01 00:43:13;;;;;;;26.95;5.55;;;;;;;12.05;65.35;93641.31;3631215;32;20145;-50
2024/04/01 00:45:45;;;;;;;23.08;6.78;;;;;;;12.02;65.43;93635.69;3661089;32;20149;-44
2024/04/01 00:48:14;;;;;;;23.33;5.15;;;;;;;11.95;65.96;93653.78;3618729;32;20146;-52
2024/04/01 00:50:44;;;;;;;22.02;7.03;;;;;;;11.85;66.43;93641.94;3653066;32;20599;-50
2024/04/01 00:53:12;;;;;;;17.05;5.00;;;;;;;11.80;66.15;93649.91;3699461;32;20142;-52
2024/04/01 00:55:43;;;;;;;31.10;6.95;;;;;;;11.76;66.97;93648.00;3632860;32;20476;-48
2024/04/01 00:58:11;;;;;;;26.95;4.80;;;;;;;11.78;66.89;93646.69;3661762;32;20133;-50
2024/04/01 01:00:40;;;;;;;24.92;4.05;;;;;;;11.72;67.01;93652.22;3670737;32;20150;-52
2024/04/01 01:03:08;;;;;;;30.45;7.97;;;;;;;11.70;66.91;93652.47;3676321;32;20122;-51
2024/04/01 01:05:36;;;;;;;23.70;5.43;;;;;;;11.77;67.11;93646.94;3625456;32;20126;-50
2024/04/01 01:08:05;;;;;;;24.17;5.95;;;;;;;11.87;66.61;93648.91;3637099;32;20129;-50
2024/04/01 01:10:33;;;;;;;24.80;4.35;;;;;;;11.92;66.65;93649.75;3624619;32;20142;-48
2024/04/01 01:13:00;;;;;;;18.80;3.95;;;;;;;11.96;66.35;93648.19;3662532;32;20126;-48
2024/04/01 01:15:28;;;;;;;20.52;4.15;;;;;;;12.02;66.45;93655.19;3631780;32;20129;-49
2024/04/01 01:17:54;;;;;;;25.42;5.68;;;;;;;11.97;66.80;93654.31;3663545;32;20134;-43
2024/04/01 01:20:22;;;;;;;25.30;4.30;;;;;;;11.94;67.02;93649.50;3662155;32;20113;-48
2024/04/01 01:22:49;;;;;;;30.05;5.68;;;;;;;11.79;67.95;93650.94;3649771;32;20141;-44
2024/04/01 01:25:16;;;;;;;22.25;4.68;;;;;;;11.61;68.75;93640.66;3617941;32;20139;-52
2024/04/01 01:27:43;;;;;;;22.27;6.60;;;;;;;11.47;69.35;93634.91;3638704;32;20145;-49
2024/04/01 01:30:17;;;;;;;27.80;5.50;;;;;;;11.37;69.84;93637.47;3623217;32;20137;-50
2024/04/01 01:32:47;;;;;;;21.90;4.03;;;;;;;11.05;71.02;93640.88;3621144;32;20130;-53
2024/04/01 01:35:16;;;;;;;29.80;7.68;;;;;;;10.99;71.37;93637.38;3693233;32;20117;-49
2024/04/01 01:37:43;;;;;;;32.00;4.60;;;;;;;10.85;71.89;93646.00;3699021;32;20142;-50
2024/04/01 01:40:10;;;;;;;24.83;4.47;;;;;;;10.75;72.60;93639.50;3617343;39;20138;-43
2024/04/01 01:42:37;;;;;;;29.90;6.20;;;;;;;10.70;72.78;93636.75;3620890;32;20470;-52
2024/04/01 01:45:04;;;;;;;24.42;4.90;;;;;;;10.71;72.78;93632.22;3650239;32;20588;-46
2024/04/01 01:47:35;;;;;;;30.73;5.47;;;;;;;10.75;72.74;93630.69;3603498;32;20126;-49
2024/04/01 01:50:04;;;;;;;22.80;4.78;;;;;;;10.75;72.99;93622.69;3685644;32;20134;-52
2024/04/01 01:52:31;;;;;;;18.70;4.22;;;;;;;10.72;72.73;93628.50;3650672;32;20134;-48
2024/04/01 01:54:59;;;;;;;17.67;4.43;;;;;;;10.63;73.27;93628.94;3651305;32;20142;-52
2024/04/01 01:57:27;;;;;;;20.50;4.63;;;;;;;10.62;73.51;93619.34;3667046;32;20135;-50
2024/04/01 01:59:55;;;;;;;26.13;4.60;;;;;;;10.54;73.48;93619.78;3635725;32;20131;-46
2024/04/01 02:02:22;;;;;;;20.65;3.83;;;;;;;10.44;74.08;93616.97;3688082;32;20123;-50
2024/04/01 02:04:49;;;;;;;19.73;4.03;;;;;;;10.44;73.84;93614.31;3657757;32;20150;-41
2024/04/01 02:07:16;;;;;;;21.35;4.40;;;;;;;10.40;73.79;93621.19;3593993;39;20123;-48
2024/04/01 02:09:43;;;;;;;17.75;3.60;;;;;;;10.47;73.54;93618.34;3626941;32;20134;-48
2024/04/01 02:12:10;;;;;;;22.05;4.20;;;;;;;10.39;73.49;93614.22;3632777;32;20130;-47
2024/04/01 02:14:38;;;;;;;24.27;5.38;;;;;;;10.39;73.50;93603.56;3662228;32;20154;-47
2024/04/01 02:17:07;;;;;;;18.73;4.70;;;;;;;10.41;72.97;93607.63;3664888;32;20142;-52
2024/04/01 02:19:37;;;;;;;28.00;4.07;;;;;;;10.39;73.46;93611.56;3610332;32;20177;-53
2024/04/01 02:22:12;;;;;;;19.35;5.10;;;;;;;10.42;73.12;93611.88;3630841;32;20130;-50
2024/04/01 02:24:43;;;;;;;22.80;6.50;;;;;;;10.33;73.58;93602.72;3665293;32;20493;-42
2024/04/01 02:27:11;;;;;;;21.90;3.35;;;;;;;10.27;73.58;93602.88;3592694;39;20127;-52
2024/04/01 02:29:38;;;;;;;16.58;3.95;;;;;;;10.41;73.19;93607.63;3663762;32;20107;-53
2024/04/01 02:32:06;;;;;;;21.10;5.72;;;;;;;10.51;72.86;93603.47;3636117;32;20154;-49
2024/04/01 02:34:33;;;;;;;27.02;5.60;;;;;;;10.56;72.54;93592.84;3680590;32;20174;-51
2024/04/01 02:37:00;;;;;;;22.27;4.18;;;;;;;10.48;72.60;93599.44;3610895;32;20582;-53
2024/04/01 02:39:27;;;;;;;27.67;6.00;;;;;;;10.44;72.96;93595.66;3656281;32;20150;-46
2024/04/01 02:41:53;;;;;;;25.23;3.92;;;;;;;10.40;73.14;93606.00;3601190;39;20138;-50
2024/04/01 02:44:20;;;;;;;27.52;5.57;;;;;;;10.38;73.39;93602.78;3684532;32;20126;-45
2024/04/01 02:46:47;;;;;;;25.17;6.40;;;;;;;10.70;72.24;93618.09;3605880;32;20466;-47
2024/04/01 02:49:14;;;;;;;23.35;3.88;;;;;;;10.83;70.90;93617.72;3678859;32;20130;-52
2024/04/01 02:51:41;;;;;;;20.70;3.50;;;;;;;10.88;69.90;93613.50;3603832;39;20151;-52
2024/04/01 02:54:09;;;;;;;29.70;4.95;;;;;;;10.82;69.76;93616.13;3617705;32;20135;-51
2024/04/01 02:59:28;;;;;;;19.40;6.63;;;;;;;10.44;73.34;93618.84;3652705;39;20222;-51
2024/04/01 03:01:55;;;;;;;17.23;4.97;;;;;;;10.42;74.03;93622.53;3621829;31;20489;-50
2024/04/01 03:04:22;;;;;;;26.60;5.82;;;;;;;10.50;73.86;93621.31;3622441;39;20133;-51
2024/04/01 03:06:49;;;;;;;24.85;7.63;;;;;;;10.62;72.28;93632.69;3698576;31;20138;-52
2024/04/01 03:09:16;;;;;;;28.77;5.70;;;;;;;10.47;74.06;93631.66;3624893;31;20141;-50
2024/04/01 03:11:43;;;;;;;17.67;5.38;;;;;;;10.61;73.28;93630.25;3647885;31;20133;-48
2024/04/01 03:14:10;;;;;;;28.52;7.28;;;;;;;10.62;72.17;93629.19;3642882;31;20137;-42
2024/04/01 03:16:37;;;;;;;21.35;5.60;;;;;;;10.50;73.51;93618.66;3659615;31;20125;-52
2024/04/01 03:19:04;;;;;;;24.13;8.15;;;;;;;10.37;73.45;93632.31;3668603;32;20133;-54
2024/04/01 03:21:31;;;;;;;22.83;6.10;;;;;;;10.27;74.36;93632.16;3655903;32;20467;-51
2024/04/01 03:23:59;;;;;;;17.25;7.43;;;;;;;10.13;74.53;93634.34;3647297;31;20129;-45
2024/04/01 03:26:26;;;;;;;22.85;5.57;;;;;;;9.97;75.07;93626.16;3623610;31;20130;-50
2024/04/01 03:28:53;;;;;;;18.15;6.25;;;;;;;9.91;75.29;93634.31;3661135;31;20149;-51
2024/04/01 03:31:19;;;;;;;26.13;6.00;;;;;;;9.93;74.95;93634.88;3639413;31;20133;-52
2024/04/01 03:33:46;;;;;;;26.23;5.63;;;;;;;9.78;75.14;93646.88;3646635;31;20134;-54
2024/04/01 03:36:13;;;;;;;29.55;5.70;;;;;;;10.01;74.29;93637.94;3632903;31;20133;-54
2024/04/01 03:38:40;;;;;;;19.40;7.50;;;;;;;9.88;74.43;93648.91;3695430;31;20153;-52
2024/04/01 03:41:07;;;;;;;21.85;5.53;;;;;;;9.84;74.68;93639.78;3637428;32;20129;-48
2024/04/01 03:43:34;;;;;;;23.08;6.50;;;;;;;9.99;74.07;93648.00;3679548;31;20125;-51
2024/04/01 03:46:02;;;;;;;40.47;12.25;;;;;;;10.00;73.78;93648.81;3623136;31;20126;-51
2024/04/01 03:48:31;;;;;;;32.25;8.48;;;;;;;9.91;74.34;93644.94;3700529;31;20563;-48
2024/04/01 03:50:58;;;;;;;26.52;6.05;;;;;;;10.00;73.90;93643.50;3626460;32;20141;-48
2024/04/01 03:53:25;;;;;;;22.35;6.00;;;;;;;9.89;74.19;93641.72;3622052;39;20564;-51
2024/04/01 03:55:51;;;;;;;29.42;4.68;;;;;;;9.94;74.15;93636.47;3689112;31;20477;-52
2024/04/01 03:58:18;;;;;;;26.88;7.18;;;;;;;10.13;73.83;93635.16;3694735;31;20141;-52
2024/04/01 04:00:45;;;;;;;35.15;7.22;;;;;;;9.98;73.64;93646.38;3708875;32;20141;-47
2024/04/01 04:03:12;;;;;;;25.50;4.93;;;;;;;10.02;73.73;93652.84;3657232;31;20506;-53
2024/04/01 04:05:39;;;;;;;19.10;6.55;;;;;;;9.93;74.36;93653.50;3677287;31;20141;-48
2024/04/01 04:08:06;;;;;;;24.58;6.65;;;;;;;9.82;74.69;93650.69;3667492;31;20137;-50
2024/04/01 04:10:33;;;;;;;23.88;7.10;;;;;;;9.67;75.39;93657.63;3673085;31;20137;-45
2024/04/01 04:18:09;;;;;;;18.70;3.85;;;;;;;9.48;76.57;93657.84;3652829;39;20159;-52
2024/04/01 04:20:37;;;;;;;27.27;5.60;;;;;;;9.43;76.44;93652.44;3678034;31;20227;-52
2024/04/01 04:23:04;;;;;;;23.70;4.50;;;;;;;9.53;76.38;93667.75;3688893;31;20161;-45
2024/04/01 04:25:31;;;;;;;23.48;5.38;;;;;;;9.52;76.21;93668.81;3623838;32;20141;-51
2024/04/01 04:27:58;;;;;;;21.42;5.82;;;;;;;9.59;75.72;93672.13;3689674;31;20133;-44
2024/04/01 04:30:25;;;;;;;26.17;6.47;;;;;;;9.54;75.81;93669.38;3681648;31;20153;-53
2024/04/01 04:32:53;;;;;;;18.75;3.03;;;;;;;9.44;76.20;93671.84;3672686;31;20137;-46
2024/04/01 04:35:20;;;;;;;33.47;6.05;;;;;;;9.57;75.94;93664.38;3635567;31;20315;-47
2024/04/01 04:37:47;;;;;;;27.10;6.35;;;;;;;9.59;75.24;93675.56;3627626;32;20125;-54
2024/04/01 04:40:14;;;;;;;24.20;5.00;;;;;;;9.52;74.92;93655.50;3664170;31;20142;-54
2024/04/01 04:42:41;;;;;;;33.60;7.15;;;;;;;9.70;74.92;93667.78;3696792;31;20141;-53
2024/04/01 04:45:08;;;;;;;40.55;8.05;;;;;;;9.68;74.66;93672.53;3637497;31;20588;-49
2024/04/01 04:47:36;;;;;;;40.80;7.22;;;;;;;9.76;73.97;93674.78;3621368;39;20138;-50
2024/04/01 04:50:04;;;;;;;35.83;6.22;;;;;;;9.97;73.93;93670.63;3644485;31;20161;-44
2024/04/01 04:52:31;;;;;;;33.92;8.98;;;;;;;10.14;72.94;93679.41;3693092;31;20538;-51
2024/04/01 04:54:58;;;;;;;26.15;4.93;;;;;;;10.37;72.49;93681.09;3706978;31;20592;-50
2024/04/01 04:57:26;;;;;;;23.98;4.07;;;;;;;10.48;72.13;93666.06;3677684;31;20137;-50
2024/04/01 04:59:53;;;;;;;31.92;5.43;;;;;;;10.50;71.32;93661.28;3687447;31;20137;-47
2024/04/01 05:02:20;;;;;;;32.22;8.07;;;;;;;10.35;70.77;93653.91;3701691;31;20150;-50
2024/04/01 05:04:47;;;;;;;55.00;9.70;;;;;;;10.29;71.08;93659.38;3671961;31;20146;-48
2024/04/01 05:07:14;;;;;;;110.30;11.02;;;;;;;10.30;71.42;93658.34;3685576;31;20161;-50
2024/04/01 05:09:42;;;;;;;25.23;6.03;;;;;;;10.19;72.04;93670.66;3694228;31;20130;-50
2024/04/01 05:12:09;;;;;;;23.70;4.13;;;;;;;10.19;71.71;93663.47;3661702;31;20126;-50
2024/04/01 05:14:36;;;;;;;28.63;5.13;;;;;;;10.49;71.10;93659.66;3674317;31;20153;-42
2024/04/01 05:17:03;;;;;;;30.65;6.20;;;;;;;10.61;71.46;93656.91;3627827;31;20129;-51
2024/04/01 05:19:30;;;;;;;24.02;5.22;;;;;;;10.77;70.38;93655.22;3680775;31;20137;-50
2024/04/01 05:21:57;;;;;;;29.13;4.70;;;;;;;10.74;70.42;93656.53;3672080;31;20141;-52
2024/04/01 05:24:24;;;;;;;21.77;4.95;;;;;;;10.96;70.62;93651.19;3657632;31;20160;-45
2024/04/01 05:26:50;;;;;;;27.85;5.03;;;;;;;10.89;70.66;93661.25;3622092;39;20137;-47
2024/04/01 05:29:18;;;;;;;25.13;5.93;;;;;;;11.03;69.76;93659.00;3703392;31;20129;-48
2024/04/01 05:31:45;;;;;;;24.95;4.45;;;;;;;11.11;70.45;93657.75;3647069;32;20134;-53
2024/04/01 05:34:12;;;;;;;23.10;4.50;;;;;;;11.11;70.41;93663.09;3617003;32;20180;-51
2024/04/01 05:36:39;;;;;;;22.30;5.07;;;;;;;11.20;70.16;93662.41;3617893;32;20122;-52
2024/04/01 05:39:06;;;;;;;26.50;4.13;;;;;;;11.18;69.81;93663.69;3651113;32;20137;-50
2024/04/01 05:41:34;;;;;;;32.42;5.07;;;;;;;11.22;69.93;93665.63;3731368;31;20309;-46
2024/04/01 05:44:01;;;;;;;22.65;4.20;;;;;;;11.26;69.00;93665.13;3696085;32;20113;-53
2024/04/01 05:46:27;;;;;;;21.80;5.13;;;;;;;11.38;67.57;93658.59;3649344;32;20129;-48
2024/04/01 05:48:54;;;;;;;20.92;4.25;;;;;;;11.39;66.81;93654.88;3661616;32;20126;-49
2024/04/01 05:51:21;;;;;;;24.90;4.60;;;;;;;11.54;66.49;93656.88;3645955;32;20129;-52
2024/04/01 05:53:49;;;;;;;28.73;4.60;;;;;;;11.50;66.10;93658.44;3652734;32;20138;-50
2024/04/01 05:56:16;;;;;;;22.10;5.22;;;;;;;11.62;65.83;93639.59;3614535;39;20150;-52
2024/04/01 05:58:43;;;;;;;12.20;3.50;;;;;;;11.68;65.38;93638.59;3679444;32;20141;-48
2024/04/01 06:01:10;;;;;;;22.02;4.55;;;;;;;11.72;65.28;93642.34;3695339;32;20118;-51
2024/04/01 06:03:37;;;;;;;19.80;4.68;;;;;;;11.76;65.06;93640.00;3704740;32;20129;-48
2024/04/01 06:06:04;;;;;;;19.02;4.65;;;;;;;11.84;64.45;93642.16;3630268;32;20113;-49
2024/04/01 06:08:31;;;;;;;20.75;3.53;;;;;;;12.08;64.93;93640.00;3630883;32;20121;-48
2024/04/01 06:11:01;;;;;;;33.70;6.25;;;;;;;12.33;63.59;93634.03;3663392;32;20137;-46
2024/04/01 06:13:28;;;;;;;20.85;6.80;;;;;;;12.35;63.51;93642.56;3633787;32;20169;-49
2024/04/01 06:15:55;;;;;;;22.33;4.75;;;;;;;12.54;64.16;93634.13;3658656;32;20138;-52
2024/04/01 06:18:22;;;;;;;24.15;5.28;;;;;;;12.58;63.76;93622.66;3677509;32;20216;-49
2024/04/01 06:20:49;;;;;;;22.88;5.88;;;;;;;12.90;62.44;93635.09;3663833;32;20145;-52
2024/04/01 06:23:16;;;;;;;30.52;9.02;;;;;;;13.01;61.21;93628.72;3643703;32;20600;-50
2024/04/01 06:25:43;;;;;;;32.33;7.40;;;;;;;13.10;60.95;93626.38;3668109;32;20138;-48
2024/04/01 06:28:11;;;;;;;21.27;4.13;;;;;;;13.35;60.47;93627.50;3618920;32;20166;-50
2024/04/01 06:30:38;;;;;;;28.75;7.78;;;;;;;13.79;58.69;93622.47;3635969;32;20138;-50
2024/04/01 06:33:05;;;;;;;28.05;5.80;;;;;;;14.77;54.43;93615.13;3647269;32;20139;-53
2024/04/01 06:35:32;;;;;;;28.90;5.15;;;;;;;15.81;51.10;93624.28;3633468;32;20141;-46
2024/04/01 06:37:59;;;;;;;20.30;3.25;;;;;;;16.44;48.92;93620.78;3657174;32;20572;-49
2024/04/01 06:40:26;;;;;;;26.85;4.50;;;;;;;17.45;46.64;93619.91;3668405;32;20133;-53
2024/04/01 06:42:53;;;;;;;22.42;5.38;;;;;;;18.20;43.70;93610.19;3681965;32;20141;-46
2024/04/01 06:45:20;;;;;;;32.20;7.50;;;;;;;18.42;43.33;93610.34;3694355;32;20141;-50
2024/04/01 06:47:47;;;;;;;32.15;5.88;;;;;;;18.86;42.02;93611.75;3648447;32;20143;-43
2024/04/01 06:50:14;;;;;;;23.33;4.43;;;;;;;20.14;40.40;93609.03;3614068;39;20134;-52
2024/04/01 06:52:41;;;;;;;24.00;4.80;;;;;;;20.22;38.64;93606.66;3619972;32;20181;-53
2024/04/01 06:55:07;;;;;;;41.45;10.00;;;;;;;20.27;39.13;93612.78;3703952;32;20636;-49
2024/04/01 06:57:34;;;;;;;26.85;6.28;;;;;;;21.80;37.44;93618.63;3618726;32;20134;-53
2024/04/01 07:00:02;;;;;;;31.40;4.38;;;;;;;22.50;35.02;93612.41;3633646;32;20137;-48
2024/04/01 07:02:29;;;;;;;26.42;4.88;;;;;;;23.47;33.93;93605.50;3630314;32;20141;-53
2024/04/01 07:04:57;;;;;;;30.20;5.45;;;;;;;23.38;31.80;93609.06;3621309;32;20125;-51
2024/04/01 07:07:24;;;;;;;23.75;5.90;;;;;;;23.89;31.38;93611.81;3650948;32;20137;-52
2024/04/01 07:09:51;;;;;;;28.73;5.80;;;;;;;24.90;30.52;93602.59;3657568;32;20493;-52
2024/04/01 07:12:18;;;;;;;31.85;5.50;;;;;;;26.23;29.37;93615.72;3653895;32;20118;-49
2024/04/01 07:14:44;;;;;;;24.95;4.85;;;;;;;27.33;27.84;93616.31;3664229;32;20150;-50
2024/04/01 07:17:11;;;;;;;31.63;6.25;;;;;;;27.41;27.49;93615.34;3606291;39;20138;-49
2024/04/01 07:19:38;;;;;;;39.90;5.35;;;;;;;27.79;27.07;93613.09;3647899;32;20130;-50
2024/04/01 07:22:05;;;;;;;29.75;4.50;;;;;;;27.89;26.61;93609.84;3694275;32;20150;-47
2024/04/01 07:24:32;;;;;;;26.42;3.65;;;;;;;28.60;26.34;93607.81;3603049;32;20537;-45
2024/04/01 07:26:59;;;;;;;28.85;4.97;;;;;;;28.63;25.37;93609.81;3605818;32;20138;-49
2024/04/01 07:29:27;;;;;;;32.88;6.95;;;;;;;28.57;25.73;93610.47;3604645;32;20220;-50
2024/04/01 07:31:54;;;;;;;30.70;5.03;;;;;;;28.32;25.78;93585.31;3665764;32;20138;-54
2024/04/01 07:34:21;;;;;;;39.85;5.18;;;;;;;27.34;25.93;93615.19;3632110;32;20130;-51
2024/04/01 07:36:48;;;;;;;31.98;6.43;;;;;;;27.84;26.40;93604.59;3650097;32;20495;-50
2024/04/01 07:39:16;;;;;;;28.52;5.55;;;;;;;28.68;25.17;93608.75;3628921;32;20226;-49
2024/04/01 07:41:43;;;;;;;30.05;5.20;;;;;;;29.31;24.79;93604.81;3669600;32;20126;-46
2024/04/01 07:44:10;;;;;;;35.13;6.03;;;;;;;29.41;24.35;93600.66;3627909;32;20465;-51
2024/04/01 07:46:37;;;;;;;25.65;6.03;;;;;;;30.32;23.85;93594.19;3634236;32;20145;-52
2024/04/01 07:49:04;;;;;;;27.10;4.50;;;;;;;29.65;23.00;93586.50;3622867;32;20143;-53
2024/04/01 07:51:31;;;;;;;27.27;4.93;;;;;;;30.55;22.69;93595.22;3646451;32;20585;-51
2024/04/01 07:53:58;;;;;;;31.42;4.57;;;;;;;30.70;22.92;93586.78;3601723;39;20146;-53
2024/04/01 07:56:25;;;;;;;43.42;6.40;;;;;;;31.19;21.18;93590.41;3617846;32;20581;-50
2024/04/01 07:58:52;;;;;;;47.90;8.85;;;;;;;31.60;21.91;93590.41;3635673;32;20146;-51
2024/04/01 08:01:19;;;;;;;25.40;5.47;;;;;;;31.73;20.42;93588.13;3645296;32;20480;-52
2024/04/01 08:03:46;;;;;;;23.92;4.70;;;;;;;31.94;20.84;93585.53;3609996;32;20134;-49
2024/04/01 08:10:09;;;;;;;39.13;6.53;;;;;;;32.54;21.67;93581.53;3651013;39;20163;-50
2024/04/01 08:12:36;;;;;;;32.65;5.82;;;;;;;32.75;17.45;93583.56;3680773;31;20133;-50
2024/04/01 08:15:03;;;;;;;36.53;7.07;;;;;;;32.95;15.53;93574.94;3684895;31;20504;-48
2024/04/01 08:17:31;;;;;;;35.33;5.60;;;;;;;32.95;14.67;93569.44;3636109;32;20133;-53
2024/04/01 08:19:58;;;;;;;36.25;6.38;;;;;;;32.98;14.58;93585.19;3660414;31;20133;-49
2024/04/01 08:22:25;;;;;;;41.20;5.18;;;;;;;30.97;14.99;93575.66;3689614;31;20126;-52
2024/04/01 08:24:51;;;;;;;38.90;5.68;;;;;;;32.27;15.22;93558.94;3644954;31;20132;-53
2024/04/01 08:27:18;;;;;;;39.60;6.75;;;;;;;32.85;15.33;93559.94;3645960;31;20121;-55
2024/04/01 08:29:45;;;;;;;35.95;6.28;;;;;;;33.36;15.04;93569.09;3686303;31;20129;-54
2024/04/01 08:32:12;;;;;;;28.05;5.45;;;;;;;34.13;16.05;93563.13;3696421;31;20153;-51
2024/04/01 08:34:39;;;;;;;34.53;6.38;;;;;;;34.88;15.50;93542.69;3644992;31;20137;-45
2024/04/01 08:37:06;;;;;;;48.33;13.65;;;;;;;35.19;13.75;93560.31;3632210;39;20149;-49
2024/04/01 08:39:33;;;;;;;45.90;7.68;;;;;;;35.88;12.74;93560.56;3688196;31;20130;-49
2024/04/01 08:42:03;;;;;;;56.83;8.52;;;;;;;33.67;12.64;93556.50;3680591;31;20133;-51
2024/04/01 08:44:32;;;;;;;48.22;7.13;;;;;;;33.97;11.87;93564.34;3682247;31;20140;-49
2024/04/01 08:47:00;;;;;;;48.22;10.90;;;;;;;33.68;11.77;93555.31;3623048;39;20129;-50
2024/04/01 08:49:39;;;;;;;40.83;7.80;;;;;;;33.46;12.90;93551.75;3638738;31;20125;-53
2024/04/01 08:52:12;;;;;;;48.58;6.60;;;;;;;32.49;12.40;93556.25;3725611;31;20490;-54
2024/04/01 08:54:40;;;;;;;46.45;8.32;;;;;;;32.30;12.63;93558.16;3715478;31;20129;-53
2024/04/01 08:57:09;;;;;;;34.38;6.47;;;;;;;32.65;13.38;93553.97;3667528;31;20173;-48
2024/04/01 08:59:37;;;;;;;43.05;7.22;;;;;;;31.78;12.62;93553.94;3639212;31;20231;-53
2024/04/01 09:02:04;;;;;;;43.75;8.75;;;;;;;31.49;13.01;93545.44;3733539;31;20133;-51
2024/04/01 09:04:31;;;;;;;49.47;7.95;;;;;;;31.76;11.99;93545.25;3677897;31;20145;-47
2024/04/01 09:06:58;;;;;;;51.60;8.38;;;;;;;31.60;12.20;93543.59;3675602;31;20137;-52
2024/04/01 09:09:26;;;;;;;42.67;7.68;;;;;;;30.69;12.60;93549.41;3636088;31;20129;-53
2024/04/01 09:11:53;;;;;;;;;;;;;;;30.79;12.92;93528.72;3695828;31;20169;-49
2024/04/01 09:14:20;;;;;;;45.13;5.78;;;;;;;32.52;14.53;93531.47;3642311;31;20006;-47
2024/04/01 09:16:52;;;;;;;49.22;7.47;;;;;;;33.49;13.04;93506.75;3657470;31;20129;-51
2024/04/01 09:19:22;;;;;;;54.35;9.15;;;;;;;33.75;12.30;93510.28;3656146;31;20212;-51
2024/04/01 09:21:52;;;;;;;40.60;8.38;;;;;;;33.74;13.23;93528.06;3626516;31;20184;-53
2024/04/01 09:24:19;;;;;;;42.40;6.70;;;;;;;32.79;11.62;93517.34;3666700;31;20122;-52
2024/04/01 09:26:48;;;;;;;41.17;7.40;;;;;;;32.72;12.45;93501.56;3623672;32;20492;-51
2024/04/01 09:29:15;;;;;;;44.65;6.35;;;;;;;33.68;12.30;93483.47;3684511;31;20129;-52
2024/04/01 09:31:43;;;;;;;53.78;7.50;;;;;;;33.83;12.09;93498.03;3647183;32;20146;-50
2024/04/01 09:34:10;;;;;;;49.22;8.80;;;;;;;34.02;12.01;93490.47;3685021;31;20133;-51
2024/04/01 09:36:37;;;;;;;54.08;7.35;;;;;;;34.67;13.36;93480.72;3673944;31;20137;-53
2024/04/01 09:39:04;;;;;;;50.28;9.25;;;;;;;34.49;12.90;93500.19;3655863;31;20580;-51
2024/04/01 09:41:31;;;;;;;49.50;7.85;;;;;;;32.81;13.85;93486.63;3666734;31;20129;-48
2024/04/01 09:43:58;;;;;;;54.55;9.18;;;;;;;33.31;12.08;93503.22;3661662;31;20173;-51
2024/04/01 09:46:25;;;;;;;47.08;9.00;;;;;;;32.90;12.44;93492.53;3662410;32;20146;-52
2024/04/01 09:48:52;;;;;;;50.83;9.60;;;;;;;32.61;11.36;93486.19;3666496;31;20118;-49
2024/04/01 09:51:20;;;;;;;53.95;11.10;;;;;;;33.27;12.28;93483.91;3666178;31;20134;-52
2024/04/01 09:53:48;;;;;;;54.90;9.75;;;;;;;32.92;11.26;93473.59;3672431;31;20121;-52
2024/04/01 09:56:36;;;;;;;46.78;8.27;;;;;;;33.23;12.72;93463.00;3637449;31;20129;-50
2024/04/01 09:59:15;;;;;;;52.10;9.13;;;;;;;33.50;10.78;93460.56;3658167;31;20126;-50
2024/04/01 10:02:13;;;;;;;59.38;8.98;;;;;;;31.90;11.63;93449.69;3658080;31;20141;-51
2024/04/01 10:05:02;;;;;;;55.28;8.77;;;;;;;32.43;13.47;93462.06;3666232;31;20122;-52
2024/04/01 10:07:54;;;;;;;62.10;9.90;;;;;;;30.49;12.54;93487.53;3642207;31;20130;-52
2024/04/01 10:10:34;;;;;;;54.75;7.75;;;;;;;30.62;12.79;93468.81;3683889;31;20130;-49
2024/04/01 10:13:48;;;;;;;65.90;9.23;;;;;;;31.10;12.32;93469.63;3702878;31;20446;-49
2024/04/01 10:16:47;;;;;;;54.45;9.85;;;;;;;31.46;13.27;93455.38;3649352;31;20618;-47
2024/04/01 10:19:50;;;;;;;51.17;9.52;;;;;;;31.27;12.42;93470.94;3672162;31;20133;-53
2024/04/01 10:22:38;;;;;;;57.85;9.07;;;;;;;31.31;12.51;93462.72;3645491;31;20498;-52
2024/04/01 10:25:14;;;;;;;43.53;8.88;;;;;;;32.25;13.83;93461.25;3622537;39;20134;-53
2024/04/01 10:27:56;;;;;;;55.08;10.73;;;;;;;32.06;12.79;93465.13;3666250;31;20498;-51
2024/04/01 10:30:38;;;;;;;64.30;8.63;;;;;;;31.65;12.71;93466.09;3694102;31;20511;-51
2024/04/01 10:33:37;;;;;;;50.80;8.88;;;;;;;31.14;12.00;93469.69;3685390;31;20126;-50
2024/04/01 10:36:16;;;;;;;59.72;9.20;;;;;;;31.12;13.81;93458.25;3670920;31;20138;-49
2024/04/01 10:39:17;;;;;;;45.30;8.93;;;;;;;31.37;12.65;93465.88;3695255;31;20122;-54
2024/04/01 10:42:18;;;;;;;46.75;8.80;;;;;;;30.90;13.28;93446.31;3668295;31;20149;-52
2024/04/01 10:45:04;;;;;;;60.45;9.40;;;;;;;31.24;13.81;93444.19;3629504;31;20181;-50
2024/04/01 10:48:06;;;;;;;38.47;8.35;;;;;;;31.13;14.25;93457.88;3625428;31;20146;-52
2024/04/01 10:51:10;;;;;;;65.60;8.07;;;;;;;29.82;12.93;93458.09;3625765;32;20130;-50
2024/04/01 10:53:55;;;;;;;49.40;11.70;;;;;;;29.46;13.03;93449.38;3620612;32;20295;-49
2024/04/01 10:57:07;;;;;;;52.00;11.82;;;;;;;29.38;13.96;93447.69;3654950;32;20539;-51
2024/04/01 11:00:20;;;;;;;47.05;10.73;;;;;;;29.87;14.79;93446.78;3649611;32;20127;-53
2024/04/01 11:03:25;;;;;;;54.92;11.45;;;;;;;30.12;15.33;93441.56;3592049;32;20483;-53
2024/04/01 11:06:12;;;;;;;52.90;10.95;;;;;;;30.00;13.53;93444.56;3686560;32;20127;-52
2024/04/01 11:09:05;;;;;;;46.58;9.15;;;;;;;30.40;13.73;93430.09;3710968;31;20122;-54
2024/04/01 11:11:59;;;;;;;54.38;8.85;;;;;;;30.69;14.99;93436.66;3669526;31;20473;-50
2024/04/01 11:14:28;;;;;;;47.08;10.02;;;;;;;31.09;14.45;93407.53;3659535;31;20144;-52
2024/04/01 11:17:01;;;;;;;49.58;6.95;;;;;;;31.27;14.04;93412.34;3662891;31;20208;-52
2024/04/01 11:19:55;;;;;;;55.35;10.65;;;;;;;31.79;14.25;93413.03;3674731;31;20121;-51
2024/04/01 11:22:48;;;;;;;45.50;7.78;;;;;;;31.70;12.46;93418.09;3684216;31;20143;-51
2024/04/01 11:25:43;;;;;;;41.67;8.77;;;;;;;31.57;13.66;93414.13;3668435;32;20149;-54
2024/04/01 11:28:37;;;;;;;62.35;8.45;;;;;;;31.42;13.94;93403.00;3618110;39;20129;-47
2024/04/01 11:31:18;;;;;;;49.15;8.10;;;;;;;31.42;14.15;93407.72;3692639;31;20133;-53
2024/04/01 11:34:03;;;;;;;49.42;9.13;;;;;;;30.84;14.00;93395.53;3688014;31;20476;-49
2024/04/01 11:36:54;;;;;;;46.50;9.35;;;;;;;30.73;14.57;93403.69;3648849;31;20138;-52
2024/04/01 11:39:22;;;;;;;48.40;7.57;;;;;;;30.47;14.30;93404.63;3640848;31;20130;-51
2024/04/01 11:41:51;;;;;;;55.67;10.77;;;;;;;30.06;15.85;93399.91;3668610;31;20189;-51
2024/04/01 11:44:22;;;;;;;44.45;9.15;;;;;;;30.14;15.04;93400.78;3673784;31;20121;-51
2024/04/01 11:46:51;;;;;;;42.92;8.75;;;;;;;30.36;14.39;93390.78;3635900;31;20123;-51
2024/04/01 11:49:23;;;;;;;35.38;8.20;;;;;;;30.13;12.98;93389.00;3662759;31;20568;-52
2024/04/01 11:51:53;;;;;;;50.10;7.97;;;;;;;30.06;13.75;93371.63;3638599;31;20137;-51
2024/04/01 11:54:27;;;;;;;49.95;12.60;;;;;;;30.31;13.94;93377.41;3665142;31;20137;-53